Time;durP1;ratioP1;P1;durP2;ratioP2;P2;SDS_P1;SDS_P2;PMS_P1;PMS_P2;Temp;Humidity;BMP_temperature;BMP_pressure;BME280_temperature;BME280_humidity;BME280_pressure;Samples;Min_cycle;Max_cycle;Signal;HPM_P1;HPM_P2
2022/10/29 00:02:07;;;;;;;11.63;5.38;;;13.90;84.30;;;;;;5003547;28;20128;-62
2022/10/29 00:04:33;;;;;;;8.93;5.32;;;13.90;84.40;;;;;;5004225;28;20414;-63
2022/10/29 00:06:58;;;;;;;9.30;4.82;;;13.90;84.40;;;;;;5004996;28;20063;-59
2022/10/29 00:09:24;;;;;;;10.45;5.10;;;14.00;84.60;;;;;;5006731;28;20033;-62
2022/10/29 00:11:49;;;;;;;10.82;5.10;;;14.00;84.60;;;;;;4997588;28;20030;-62
2022/10/29 00:14:16;;;;;;;9.18;4.78;;;14.00;84.60;;;;;;5005503;28;20309;-63
2022/10/29 00:16:41;;;;;;;11.30;4.57;;;14.10;84.60;;;;;;5003067;28;20056;-62
2022/10/29 00:19:08;;;;;;;9.88;5.35;;;14.10;84.60;;;;;;5004685;28;20523;-63
2022/10/29 00:21:33;;;;;;;8.50;5.03;;;14.10;84.60;;;;;;5002458;28;20054;-62
2022/10/29 00:23:59;;;;;;;7.00;4.85;;;14.10;84.60;;;;;;5004831;28;20129;-63
2022/10/29 00:26:28;;;;;;;12.52;5.10;;;14.10;84.60;;;;;;5005139;28;20030;-63
2022/10/29 00:28:55;;;;;;;9.85;5.15;;;14.20;84.60;;;;;;5004335;28;20037;-61
2022/10/29 00:31:24;;;;;;;10.48;5.10;;;14.10;84.60;;;;;;5003135;28;20034;-61
2022/10/29 00:33:52;;;;;;;9.95;5.38;;;14.20;84.60;;;;;;5004017;28;20064;-61
2022/10/29 00:36:21;;;;;;;11.05;5.00;;;14.20;85.60;;;;;;5005622;28;20042;-62
2022/10/29 00:38:47;;;;;;;10.60;5.10;;;14.20;85.00;;;;;;5004693;28;20022;-63
2022/10/29 00:41:19;;;;;;;9.40;5.18;;;14.20;84.90;;;;;;5004932;28;20034;-63
2022/10/29 00:44:12;;;;;;;11.75;4.90;;;14.20;85.10;;;;;;5003118;28;20034;-61
2022/10/29 00:46:39;;;;;;;9.05;5.15;;;14.20;85.30;;;;;;5004137;28;20406;-62
2022/10/29 00:49:04;;;;;;;8.02;5.13;;;14.20;85.00;;;;;;5004384;28;20045;-62
2022/10/29 00:51:31;;;;;;;10.10;5.40;;;14.20;85.10;;;;;;5005539;28;20038;-61
2022/10/29 00:54:04;;;;;;;11.43;4.68;;;14.20;85.20;;;;;;5003233;28;20037;-62
2022/10/29 00:56:33;;;;;;;9.38;4.82;;;14.20;85.30;;;;;;5003404;28;20034;-62
2022/10/29 00:58:59;;;;;;;9.60;5.07;;;14.20;85.30;;;;;;5004732;28;20125;-61
2022/10/29 01:01:25;;;;;;;10.80;4.72;;;14.20;85.30;;;;;;5000297;28;20518;-62
2022/10/29 01:03:53;;;;;;;7.25;4.20;;;14.20;85.30;;;;;;5004355;28;20056;-61
2022/10/29 01:06:18;;;;;;;11.57;4.68;;;14.20;85.30;;;;;;5001671;28;20049;-63
2022/10/29 01:08:44;;;;;;;10.45;5.10;;;14.10;85.20;;;;;;5004170;28;20041;-63
2022/10/29 01:11:24;;;;;;;6.65;4.28;;;14.20;85.20;;;;;;4995239;28;20038;-62
2022/10/29 01:14:05;;;;;;;8.63;4.55;;;14.10;85.20;;;;;;5003560;28;20356;-64
2022/10/29 01:16:40;;;;;;;10.93;4.85;;;14.20;85.20;;;;;;5003975;28;20038;-62
2022/10/29 01:19:28;;;;;;;9.55;5.78;;;14.20;85.30;;;;;;5003689;28;20128;-61
2022/10/29 01:22:03;;;;;;;9.95;5.20;;;14.10;85.50;;;;;;4999644;28;20619;-62
2022/10/29 01:25:01;;;;;;;7.85;4.75;;;14.10;86.40;;;;;;5003128;28;20037;-63
2022/10/29 01:27:48;;;;;;;8.02;4.80;;;14.10;87.10;;;;;;5003351;28;20472;-63
2022/10/29 01:30:14;;;;;;;10.20;5.30;;;14.10;85.90;;;;;;5002661;28;20038;-63
2022/10/29 01:32:58;;;;;;;7.43;5.25;;;14.10;85.40;;;;;;5001391;28;20038;-62
2022/10/29 01:35:49;;;;;;;8.73;5.43;;;14.10;86.00;;;;;;5003403;28;20281;-63
2022/10/29 01:38:15;;;;;;;13.35;5.47;;;14.10;85.90;;;;;;5001943;28;20030;-63
2022/10/29 01:41:02;;;;;;;7.80;4.82;;;14.10;85.40;;;;;;5001931;28;20038;-62
2022/10/29 01:43:35;;;;;;;8.77;4.85;;;14.00;85.30;;;;;;5003109;28;20099;-61
2022/10/29 01:46:07;;;;;;;7.68;4.95;;;14.10;85.20;;;;;;5001590;28;20042;-60
2022/10/29 01:48:36;;;;;;;8.38;5.60;;;14.00;84.90;;;;;;5003366;28;20455;-62
2022/10/29 01:51:08;;;;;;;8.95;5.47;;;14.00;84.60;;;;;;5002800;28;20067;-61
2022/10/29 01:53:36;;;;;;;10.32;5.78;;;14.00;84.50;;;;;;5003103;28;20049;-62
2022/10/29 01:56:02;;;;;;;14.40;6.38;;;14.00;84.40;;;;;;5003716;28;20053;-62
2022/10/29 01:58:27;;;;;;;11.45;6.20;;;14.00;84.50;;;;;;5000809;28;20073;-62
2022/10/29 02:00:59;;;;;;;9.48;6.25;;;13.90;84.50;;;;;;4999559;28;20033;-62
2022/10/29 02:03:36;;;;;;;12.23;6.00;;;14.00;84.80;;;;;;5002325;28;20571;-62
2022/10/29 02:06:28;;;;;;;10.40;5.63;;;13.90;85.00;;;;;;5004621;28;20046;-61
2022/10/29 02:09:20;;;;;;;10.45;6.03;;;14.00;85.00;;;;;;5001722;28;20042;-62
2022/10/29 02:12:00;;;;;;;11.18;5.47;;;14.00;85.20;;;;;;4996804;28;20667;-62
2022/10/29 02:14:31;;;;;;;10.90;5.85;;;14.00;85.00;;;;;;5004036;28;20200;-62
2022/10/29 02:16:58;;;;;;;10.00;5.55;;;14.00;85.00;;;;;;5003014;28;20034;-62
2022/10/29 02:19:32;;;;;;;8.15;5.82;;;14.00;84.90;;;;;;5003276;28;20037;-62
2022/10/29 02:21:58;;;;;;;13.65;5.43;;;14.00;85.20;;;;;;5001709;28;20609;-61
2022/10/29 02:24:24;;;;;;;16.63;5.25;;;14.00;85.20;;;;;;5003916;28;20490;-63
2022/10/29 02:26:50;;;;;;;6.95;4.88;;;14.00;85.50;;;;;;5002015;28;20125;-61
2022/10/29 02:29:16;;;;;;;10.30;5.18;;;14.00;85.70;;;;;;4992758;28;20409;-61
2022/10/29 02:31:41;;;;;;;10.07;6.10;;;14.00;85.70;;;;;;5004030;28;20816;-62
2022/10/29 02:34:07;;;;;;;11.55;6.03;;;13.90;85.50;;;;;;4998373;28;20034;-62
2022/10/29 02:36:32;;;;;;;12.75;6.60;;;13.90;85.50;;;;;;5003538;28;20128;-61
2022/10/29 02:38:58;;;;;;;12.05;6.45;;;14.00;85.40;;;;;;5001473;28;20034;-62
2022/10/29 02:41:23;;;;;;;11.88;5.55;;;14.00;85.40;;;;;;5003485;28;20048;-62
2022/10/29 02:43:49;;;;;;;9.00;5.22;;;14.00;85.50;;;;;;5002903;28;20061;-63
2022/10/29 02:46:20;;;;;;;7.45;5.22;;;14.00;85.50;;;;;;5002859;28;20038;-63
2022/10/29 02:48:46;;;;;;;8.02;5.25;;;13.90;85.70;;;;;;5005296;28;20042;-62
2022/10/29 02:51:13;;;;;;;7.10;4.57;;;14.00;85.70;;;;;;5006467;28;20046;-62
2022/10/29 02:53:39;;;;;;;9.32;5.95;;;14.00;85.70;;;;;;4999845;28;20049;-62
2022/10/29 02:56:06;;;;;;;37.35;20.90;;;13.90;85.60;;;;;;4997205;28;20129;-62
2022/10/29 02:58:31;;;;;;;15.63;10.50;;;14.00;85.70;;;;;;5011164;28;20049;-63
2022/10/29 03:00:57;;;;;;;14.20;6.50;;;14.00;85.60;;;;;;4998692;28;20033;-62
2022/10/29 03:03:24;;;;;;;10.05;5.45;;;14.00;85.60;;;;;;4996655;28;20607;-63
2022/10/29 03:05:50;;;;;;;11.13;4.82;;;14.00;85.70;;;;;;4996969;28;20046;-62
2022/10/29 03:08:16;;;;;;;7.88;4.85;;;14.00;85.70;;;;;;4999619;28;20409;-63
2022/10/29 03:10:42;;;;;;;83.60;32.05;;;14.00;86.00;;;;;;4995513;28;20038;-62
2022/10/29 03:13:07;;;;;;;99.38;41.78;;;14.00;86.80;;;;;;4995103;28;20039;-63
2022/10/29 03:15:35;;;;;;;61.60;26.95;;;14.00;86.00;;;;;;4997536;28;20039;-63
2022/10/29 03:18:01;;;;;;;66.18;28.02;;;14.00;86.00;;;;;;5002937;28;20038;-62
2022/10/29 03:20:26;;;;;;;17.55;9.50;;;14.00;85.90;;;;;;4999359;28;20334;-62
2022/10/29 03:22:52;;;;;;;10.40;6.20;;;14.00;85.90;;;;;;5001559;28;20117;-63
2022/10/29 03:25:17;;;;;;;13.02;5.47;;;14.00;85.90;;;;;;5003270;28;20049;-63
2022/10/29 03:27:45;;;;;;;10.10;4.95;;;14.00;86.00;;;;;;5001072;28;20044;-61
2022/10/29 03:30:15;;;;;;;10.25;5.60;;;14.00;86.30;;;;;;5008014;28;20034;-63
2022/10/29 03:32:43;;;;;;;13.43;8.90;;;14.00;86.60;;;;;;4998861;28;20084;-62
2022/10/29 03:35:10;;;;;;;9.07;5.32;;;14.00;87.40;;;;;;5001942;28;20082;-60
2022/10/29 03:37:36;;;;;;;7.75;5.25;;;14.00;86.60;;;;;;5009488;28;20091;-63
2022/10/29 03:40:02;;;;;;;8.50;5.32;;;14.00;86.60;;;;;;5007374;28;20060;-62
2022/10/29 03:42:30;;;;;;;6.95;4.68;;;14.00;86.50;;;;;;5000445;28;20048;-60
2022/10/29 03:44:56;;;;;;;8.05;5.00;;;14.10;86.40;;;;;;5000366;28;20030;-61
2022/10/29 03:47:22;;;;;;;8.00;4.57;;;14.00;86.30;;;;;;5000293;28;20289;-62
2022/10/29 03:49:47;;;;;;;9.55;5.03;;;14.00;86.20;;;;;;5000327;28;20030;-62
2022/10/29 03:52:13;;;;;;;9.25;5.20;;;14.00;86.20;;;;;;4999288;28;20476;-62
2022/10/29 03:54:39;;;;;;;6.10;4.75;;;14.00;86.20;;;;;;4999971;28;20041;-63
2022/10/29 03:57:04;;;;;;;7.13;4.72;;;14.00;86.20;;;;;;5000657;28;20547;-62
2022/10/29 03:59:30;;;;;;;8.60;5.47;;;14.00;86.30;;;;;;5014554;28;20196;-63
2022/10/29 04:01:55;;;;;;;7.93;5.68;;;14.00;86.30;;;;;;5000259;28;20046;-60
2022/10/29 04:04:21;;;;;;;9.68;6.20;;;14.00;86.20;;;;;;5002158;28;20033;-62
2022/10/29 04:06:46;;;;;;;10.35;6.18;;;14.00;86.20;;;;;;5003284;28;20605;-60
2022/10/29 04:09:12;;;;;;;8.73;6.13;;;14.00;86.20;;;;;;5002311;28;20026;-63
2022/10/29 04:11:37;;;;;;;8.02;5.78;;;14.10;86.20;;;;;;4998645;28;20398;-61
2022/10/29 04:14:03;;;;;;;10.70;5.25;;;14.00;86.10;;;;;;4998511;28;20030;-60
2022/10/29 04:16:29;;;;;;;11.10;5.78;;;14.00;86.90;;;;;;4999759;28;20095;-62
2022/10/29 04:18:54;;;;;;;8.63;5.47;;;14.00;87.00;;;;;;5000670;28;20036;-62
2022/10/29 04:21:20;;;;;;;8.90;5.63;;;14.00;86.20;;;;;;4998073;28;20069;-61
2022/10/29 04:23:47;;;;;;;9.52;5.25;;;14.00;86.00;;;;;;5001598;28;20038;-63
2022/10/29 04:26:12;;;;;;;9.18;5.50;;;14.00;85.90;;;;;;5001290;28;20041;-61
2022/10/29 04:28:38;;;;;;;9.10;5.25;;;13.90;85.90;;;;;;5004179;28;20026;-62
2022/10/29 04:31:09;;;;;;;6.00;5.00;;;13.90;85.90;;;;;;4998390;28;20084;-61
2022/10/29 04:33:35;;;;;;;7.47;5.07;;;13.90;86.10;;;;;;5001041;28;20036;-61
2022/10/29 04:36:01;;;;;;;9.23;5.28;;;13.90;86.00;;;;;;5000973;28;20037;-63
2022/10/29 04:38:26;;;;;;;9.88;5.13;;;13.90;85.90;;;;;;5005655;28;20123;-63
2022/10/29 04:40:52;;;;;;;7.03;4.78;;;13.90;86.00;;;;;;5005360;28;20120;-63
2022/10/29 04:43:17;;;;;;;8.15;5.10;;;13.90;86.00;;;;;;4999174;28;20514;-62
2022/10/29 04:45:43;;;;;;;10.40;5.55;;;13.90;85.90;;;;;;5003567;28;20112;-60
2022/10/29 04:48:09;;;;;;;7.20;4.90;;;13.90;85.80;;;;;;4998985;28;20116;-63
2022/10/29 04:50:37;;;;;;;8.73;5.43;;;13.90;85.70;;;;;;4998241;28;20061;-62
2022/10/29 04:53:04;;;;;;;9.20;5.80;;;13.90;85.60;;;;;;4999307;28;20044;-63
2022/10/29 04:55:30;;;;;;;7.80;5.18;;;13.90;85.50;;;;;;5001559;28;20144;-61
2022/10/29 04:57:56;;;;;;;8.98;5.20;;;13.90;85.50;;;;;;5002095;28;20104;-62
2022/10/29 05:00:22;;;;;;;7.35;4.80;;;13.80;85.50;;;;;;4998890;28;20042;-63
2022/10/29 05:02:49;;;;;;;7.53;4.70;;;13.80;85.60;;;;;;4996509;28;20046;-63
2022/10/29 05:05:16;;;;;;;7.00;5.20;;;13.80;85.70;;;;;;4998756;28;20409;-62
2022/10/29 05:07:42;;;;;;;9.98;5.72;;;13.70;85.90;;;;;;5001875;28;20117;-62
2022/10/29 05:10:08;;;;;;;7.05;4.63;;;13.70;86.00;;;;;;4999555;28;20033;-61
2022/10/29 05:12:33;;;;;;;8.88;5.93;;;13.70;86.20;;;;;;4998632;28;20512;-62
2022/10/29 05:14:59;;;;;;;8.95;4.68;;;13.70;86.30;;;;;;5001297;28;20034;-62
2022/10/29 05:17:24;;;;;;;6.20;5.10;;;13.70;86.40;;;;;;5000533;28;20406;-63
2022/10/29 05:19:50;;;;;;;9.48;5.90;;;13.70;86.30;;;;;;4999416;28;20088;-62
2022/10/29 05:22:15;;;;;;;9.73;5.25;;;13.70;86.40;;;;;;4996728;28;20521;-61
2022/10/29 05:24:41;;;;;;;11.50;6.20;;;13.70;86.50;;;;;;4996917;28;20060;-62
2022/10/29 05:27:07;;;;;;;13.45;6.82;;;13.60;86.40;;;;;;5000711;28;20034;-62
2022/10/29 05:29:32;;;;;;;10.88;7.35;;;13.70;86.40;;;;;;5002756;28;20046;-61
2022/10/29 05:31:58;;;;;;;12.20;7.13;;;13.70;86.40;;;;;;5000357;28;20255;-61
2022/10/29 05:34:24;;;;;;;11.05;6.40;;;13.70;86.40;;;;;;4997466;28;20052;-63
2022/10/29 05:36:49;;;;;;;14.55;7.05;;;13.70;86.40;;;;;;5001249;28;20022;-61
2022/10/29 05:39:15;;;;;;;9.57;6.60;;;13.70;86.40;;;;;;5006746;28;20576;-61
2022/10/29 05:41:41;;;;;;;13.88;7.25;;;13.70;86.40;;;;;;5002792;28;20385;-62
2022/10/29 05:44:06;;;;;;;12.70;6.55;;;13.70;86.40;;;;;;4998583;28;20120;-62
2022/10/29 05:46:32;;;;;;;12.50;6.63;;;13.80;86.30;;;;;;4997868;28;20053;-60
2022/10/29 05:48:57;;;;;;;8.85;6.15;;;13.70;86.30;;;;;;4999318;28;20119;-62
2022/10/29 05:51:23;;;;;;;11.15;6.90;;;13.70;86.20;;;;;;4999475;28;20188;-63
2022/10/29 05:53:49;;;;;;;12.90;6.20;;;13.70;86.20;;;;;;4999023;28;20037;-62
2022/10/29 05:56:15;;;;;;;13.80;6.53;;;13.70;86.20;;;;;;5000325;28;20045;-60
2022/10/29 05:58:40;;;;;;;11.00;6.00;;;13.70;86.10;;;;;;4997814;28;20038;-61
2022/10/29 06:01:09;;;;;;;12.15;5.40;;;13.70;86.10;;;;;;4998300;28;20599;-62
2022/10/29 06:03:36;;;;;;;7.63;5.63;;;13.70;86.10;;;;;;5001817;28;20513;-63
2022/10/29 06:06:01;;;;;;;10.75;5.78;;;13.70;86.00;;;;;;5003262;28;20041;-62
2022/10/29 06:08:27;;;;;;;8.57;5.50;;;13.70;86.20;;;;;;5001503;28;20083;-61
2022/10/29 06:10:52;;;;;;;8.88;5.88;;;13.60;86.00;;;;;;4999531;28;20895;-62
2022/10/29 06:13:20;;;;;;;9.00;5.78;;;13.70;86.10;;;;;;5004311;28;20103;-62
2022/10/29 06:15:46;;;;;;;8.07;5.03;;;13.60;86.00;;;;;;5005025;28;20521;-62
2022/10/29 06:18:12;;;;;;;11.10;5.70;;;13.70;85.90;;;;;;5005969;28;20060;-63
2022/10/29 06:20:39;;;;;;;11.52;5.53;;;13.70;85.90;;;;;;5004433;28;20042;-63
2022/10/29 06:23:05;;;;;;;8.20;4.95;;;13.60;85.80;;;;;;5006036;28;20475;-62
2022/10/29 06:25:31;;;;;;;10.90;5.32;;;13.60;85.80;;;;;;5006011;28;20316;-63
2022/10/29 06:27:57;;;;;;;12.65;5.32;;;13.60;85.80;;;;;;5007657;28;20037;-63
2022/10/29 06:30:23;;;;;;;6.90;4.97;;;13.50;85.70;;;;;;5004467;28;20608;-63
2022/10/29 06:32:49;;;;;;;9.57;4.68;;;13.50;85.70;;;;;;4999161;28;20041;-63
2022/10/29 06:35:14;;;;;;;8.27;5.15;;;13.50;85.70;;;;;;4999326;28;20088;-60
2022/10/29 06:37:40;;;;;;;10.00;6.00;;;13.50;85.80;;;;;;4998764;28;20034;-61
2022/10/29 06:40:06;;;;;;;10.43;6.70;;;13.50;85.90;;;;;;4998554;28;20040;-61
2022/10/29 06:42:31;;;;;;;11.65;6.30;;;13.50;86.00;;;;;;4984460;28;20100;-62
2022/10/29 06:44:57;;;;;;;12.45;7.10;;;13.40;86.00;;;;;;4979515;28;20056;-60
2022/10/29 06:47:22;;;;;;;14.05;7.47;;;13.40;86.00;;;;;;4982003;28;20133;-63
2022/10/29 06:49:48;;;;;;;13.50;7.40;;;13.40;86.00;;;;;;4988848;28;20438;-63
2022/10/29 06:52:13;;;;;;;10.48;7.40;;;13.40;86.00;;;;;;4988080;28;20453;-62
2022/10/29 06:54:39;;;;;;;10.80;7.88;;;13.40;86.00;;;;;;4988381;28;20161;-63
2022/10/29 06:57:04;;;;;;;14.43;7.57;;;13.40;86.10;;;;;;4989076;28;20125;-63
2022/10/29 06:59:30;;;;;;;11.50;7.50;;;13.30;86.20;;;;;;4990972;28;20399;-63
2022/10/29 07:01:56;;;;;;;11.00;6.80;;;13.40;86.30;;;;;;4984268;28;21127;-63
2022/10/29 07:04:21;;;;;;;13.27;7.20;;;13.40;86.40;;;;;;4992392;28;20069;-63
2022/10/29 07:06:47;;;;;;;13.80;7.07;;;13.40;86.50;;;;;;4991880;28;20129;-63
2022/10/29 07:09:12;;;;;;;15.10;6.43;;;13.40;86.60;;;;;;5002538;28;20034;-62
2022/10/29 07:11:38;;;;;;;15.10;7.05;;;13.40;86.60;;;;;;4994823;28;20044;-63
2022/10/29 07:14:10;;;;;;;12.23;6.70;;;13.40;86.60;;;;;;5000337;28;20026;-62
2022/10/29 07:16:36;;;;;;;14.15;6.50;;;13.40;86.60;;;;;;4999567;28;20121;-61
2022/10/29 07:19:03;;;;;;;11.48;6.45;;;13.40;86.60;;;;;;4994769;28;20042;-63
2022/10/29 07:21:28;;;;;;;11.95;6.28;;;13.50;86.70;;;;;;4991634;28;20125;-62
2022/10/29 07:23:54;;;;;;;9.68;5.53;;;13.50;87.00;;;;;;4996629;28;20038;-63
2022/10/29 07:26:19;;;;;;;8.40;5.38;;;13.50;87.40;;;;;;5001329;28;20049;-63
2022/10/29 07:28:45;;;;;;;13.05;5.80;;;13.50;87.90;;;;;;4995007;28;20431;-61
2022/10/29 07:31:10;;;;;;;7.32;5.25;;;13.50;88.20;;;;;;4999391;28;20120;-62
2022/10/29 07:33:36;;;;;;;9.40;5.03;;;13.60;88.30;;;;;;4997757;28;20040;-61
2022/10/29 07:36:01;;;;;;;10.57;6.03;;;13.60;88.30;;;;;;4995313;28;20033;-63
2022/10/29 07:38:27;;;;;;;13.30;6.45;;;13.70;88.30;;;;;;4999883;28;20038;-61
2022/10/29 07:40:53;;;;;;;10.85;6.82;;;13.70;88.30;;;;;;4997879;28;20107;-63
2022/10/29 07:43:20;;;;;;;13.13;6.72;;;13.70;88.30;;;;;;5004157;28;20453;-62
2022/10/29 07:45:50;;;;;;;9.38;6.30;;;13.80;88.30;;;;;;4995474;28;22193;-63
2022/10/29 07:48:17;;;;;;;15.40;6.18;;;13.80;88.40;;;;;;4999010;28;20041;-61
2022/10/29 07:50:43;;;;;;;9.55;5.75;;;13.90;88.60;;;;;;4996902;28;20087;-62
2022/10/29 07:53:09;;;;;;;12.38;6.38;;;14.00;88.80;;;;;;4993514;28;20049;-62
2022/10/29 07:55:35;;;;;;;12.82;6.00;;;14.00;89.00;;;;;;4996952;28;20533;-63
2022/10/29 07:58:03;;;;;;;14.63;5.78;;;14.10;89.10;;;;;;4992227;28;20049;-63
2022/10/29 08:00:30;;;;;;;12.75;5.50;;;14.10;89.20;;;;;;5001027;28;20034;-63
2022/10/29 08:02:57;;;;;;;10.13;5.68;;;14.20;89.20;;;;;;5005276;28;20037;-62
2022/10/29 08:05:25;;;;;;;11.90;5.32;;;14.30;89.20;;;;;;4998762;28;20169;-63
2022/10/29 08:07:54;;;;;;;10.30;5.15;;;14.30;89.20;;;;;;5000784;28;20414;-64
2022/10/29 08:10:20;;;;;;;8.70;5.53;;;14.40;89.20;;;;;;5001294;28;20041;-63
2022/10/29 08:12:54;;;;;;;12.52;5.55;;;14.40;89.10;;;;;;4995792;28;20082;-63
2022/10/29 08:15:21;;;;;;;9.77;5.15;;;14.50;89.50;;;;;;5003168;28;21004;-63
2022/10/29 08:17:46;;;;;;;10.02;5.50;;;14.60;89.30;;;;;;5000048;28;20382;-62
2022/10/29 08:20:13;;;;;;;11.02;4.80;;;14.70;89.20;;;;;;4998452;28;20044;-61
2022/10/29 08:22:39;;;;;;;8.80;4.22;;;14.80;89.10;;;;;;4995259;28;20592;-63
2022/10/29 08:25:04;;;;;;;10.02;4.38;;;14.90;89.00;;;;;;5002356;28;20034;-60
2022/10/29 08:27:30;;;;;;;10.63;3.92;;;14.90;88.90;;;;;;5001926;28;20092;-61
2022/10/29 08:29:56;;;;;;;9.00;3.95;;;15.00;88.60;;;;;;4999495;28;20034;-62
2022/10/29 08:32:22;;;;;;;7.50;4.15;;;15.10;88.30;;;;;;4994825;28;20041;-63
2022/10/29 08:34:47;;;;;;;9.73;4.10;;;15.20;88.30;;;;;;4992896;28;20049;-62
2022/10/29 08:37:13;;;;;;;11.75;4.35;;;15.20;88.00;;;;;;4998357;28;20037;-62
2022/10/29 08:39:38;;;;;;;8.02;3.97;;;15.30;87.80;;;;;;4998025;28;20670;-63
2022/10/29 08:42:32;;;;;;;8.52;3.50;;;15.40;87.70;;;;;;4996269;28;20128;-63
2022/10/29 08:45:21;;;;;;;8.95;3.97;;;15.50;86.40;;;;;;4994088;28;20585;-63
2022/10/29 08:47:46;;;;;;;8.00;3.33;;;15.70;86.60;;;;;;4999953;28;20030;-63
2022/10/29 08:50:29;;;;;;;10.80;3.95;;;15.80;86.40;;;;;;5000053;28;20061;-64
2022/10/29 08:52:55;;;;;;;8.98;3.90;;;15.80;85.50;;;;;;4997059;28;20491;-63
2022/10/29 08:55:35;;;;;;;6.90;3.50;;;15.90;85.90;;;;;;4997967;28;20040;-61
2022/10/29 08:58:29;;;;;;;9.10;3.67;;;16.00;85.40;;;;;;5001865;28;20213;-64
2022/10/29 09:00:57;;;;;;;13.80;4.03;;;16.10;85.50;;;;;;5006311;28;20176;-64
2022/10/29 09:03:25;;;;;;;11.50;3.33;;;16.20;85.40;;;;;;5005130;28;20053;-62
2022/10/29 09:06:06;;;;;;;7.10;3.47;;;16.40;85.30;;;;;;5007407;28;20037;-62
2022/10/29 09:09:01;;;;;;;13.25;3.60;;;16.50;85.00;;;;;;5004701;28;20034;-62
2022/10/29 09:11:34;;;;;;;9.48;3.22;;;16.60;83.90;;;;;;5004024;28;20049;-64
2022/10/29 09:14:15;;;;;;;7.47;3.13;;;16.70;84.30;;;;;;5003643;28;20551;-61
2022/10/29 09:17:14;;;;;;;6.90;3.35;;;16.90;83.30;;;;;;5006963;28;20232;-64
2022/10/29 09:19:45;;;;;;;11.05;2.63;;;17.00;82.70;;;;;;5006831;28;20034;-63
2022/10/29 09:22:31;;;;;;;6.75;2.40;;;17.10;83.10;;;;;;5005089;28;20105;-63
2022/10/29 09:25:02;;;;;;;8.40;2.33;;;17.20;82.60;;;;;;5003331;28;20041;-62
2022/10/29 09:27:48;;;;;;;8.65;2.78;;;17.30;81.50;;;;;;5004770;28;20494;-63
2022/10/29 09:30:19;;;;;;;4.85;3.15;;;17.40;81.00;;;;;;5007021;28;20042;-63
2022/10/29 09:32:59;;;;;;;7.38;3.92;;;17.60;82.10;;;;;;5005034;28;20392;-63
2022/10/29 09:35:44;;;;;;;6.60;3.40;;;17.70;83.30;;;;;;5005213;28;20076;-63
2022/10/29 09:38:57;;;;;;;8.70;4.15;;;17.80;83.40;;;;;;5006413;28;20041;-62
2022/10/29 09:41:29;;;;;;;10.80;3.85;;;18.00;82.50;;;;;;4956672;28;20134;-62
2022/10/29 09:44:00;;;;;;;6.28;3.80;;;18.10;83.00;;;;;;5002058;28;20085;-63
2022/10/29 09:46:40;;;;;;;8.07;3.80;;;18.20;82.30;;;;;;5004490;28;20045;-64
2022/10/29 09:49:26;;;;;;;15.40;4.50;;;18.30;81.50;;;;;;5005288;28;20098;-64
2022/10/29 09:51:59;;;;;;;10.38;4.18;;;18.40;81.50;;;;;;5002348;28;20582;-63
2022/10/29 09:54:28;;;;;;;9.20;3.67;;;18.60;81.70;;;;;;5005673;28;20046;-63
2022/10/29 09:56:54;;;;;;;9.15;4.38;;;18.60;81.70;;;;;;5001825;28;20034;-63
2022/10/29 09:59:33;;;;;;;11.15;4.55;;;18.70;81.30;;;;;;5003318;28;20517;-63
2022/10/29 10:01:59;;;;;;;8.20;4.35;;;18.80;81.20;;;;;;5003701;28;20042;-63
2022/10/29 10:04:27;;;;;;;6.68;3.95;;;18.80;80.80;;;;;;5002711;28;20148;-64
2022/10/29 10:07:08;;;;;;;7.75;3.85;;;18.90;80.70;;;;;;5004226;28;20088;-64
2022/10/29 10:09:56;;;;;;;8.02;3.50;;;18.90;79.30;;;;;;5006109;28;20505;-63
2022/10/29 10:12:43;;;;;;;11.63;3.95;;;19.00;78.60;;;;;;5000846;28;20045;-63
2022/10/29 10:15:09;;;;;;;9.23;3.83;;;19.10;79.40;;;;;;4989136;28;20030;-62
2022/10/29 10:17:53;;;;;;;8.90;3.92;;;19.10;79.60;;;;;;5003513;28;20050;-64
2022/10/29 10:20:33;;;;;;;7.75;3.75;;;19.20;79.30;;;;;;5001068;28;20601;-64
2022/10/29 10:22:58;;;;;;;10.13;3.40;;;19.30;79.30;;;;;;5002507;28;20132;-63
2022/10/29 10:25:32;;;;;;;8.07;3.83;;;19.40;79.70;;;;;;5004542;28;20116;-64
2022/10/29 10:28:22;;;;;;;7.82;3.42;;;19.50;79.20;;;;;;5001985;28;20040;-64
2022/10/29 10:31:03;;;;;;;10.18;3.80;;;19.60;79.60;;;;;;5002540;28;20042;-64
2022/10/29 10:33:31;;;;;;;8.23;3.65;;;19.70;78.50;;;;;;4995652;28;20033;-61
2022/10/29 10:36:05;;;;;;;8.40;3.70;;;19.80;78.80;;;;;;5004705;28;20432;-64
2022/10/29 10:38:38;;;;;;;9.77;3.50;;;19.80;78.50;;;;;;5004209;28;20520;-64
2022/10/29 10:41:07;;;;;;;10.07;3.58;;;20.00;77.70;;;;;;5002642;28;20076;-63
2022/10/29 10:43:34;;;;;;;7.80;3.03;;;20.00;78.00;;;;;;5004117;28;20599;-64
2022/10/29 10:46:05;;;;;;;10.80;3.17;;;20.10;77.40;;;;;;5004756;28;20037;-64
2022/10/29 10:48:32;;;;;;;7.32;2.97;;;20.20;76.00;;;;;;5003368;28;20045;-63
2022/10/29 10:51:34;;;;;;;8.70;3.05;;;20.30;76.00;;;;;;5003205;28;20132;-64
2022/10/29 10:54:05;;;;;;;6.82;2.88;;;20.40;75.40;;;;;;4993527;28;20034;-65
2022/10/29 10:56:31;;;;;;;7.40;3.20;;;20.50;75.60;;;;;;4991789;28;20057;-63
2022/10/29 10:59:15;;;;;;;6.60;2.85;;;20.60;75.40;;;;;;4994127;28;20088;-63
2022/10/29 11:01:44;;;;;;;6.68;2.78;;;20.60;73.80;;;;;;4995551;28;20050;-64
2022/10/29 11:04:36;;;;;;;8.60;2.67;;;20.60;74.20;;;;;;4996440;28;20042;-63
2022/10/29 11:07:07;;;;;;;8.57;2.38;;;20.70;72.90;;;;;;5002104;28;20026;-63
2022/10/29 11:09:49;;;;;;;7.80;2.33;;;20.80;73.10;;;;;;5004316;28;20041;-63
2022/10/29 11:12:31;;;;;;;8.50;2.75;;;20.80;72.90;;;;;;4996513;28;20429;-63
2022/10/29 11:15:20;;;;;;;9.43;2.50;;;20.90;72.80;;;;;;4982766;28;20046;-64
2022/10/29 11:17:54;;;;;;;10.48;2.70;;;20.90;72.50;;;;;;4998404;28;20081;-64
2022/10/29 11:20:31;;;;;;;10.68;2.72;;;20.90;73.50;;;;;;4999988;28;20061;-64
2022/10/29 11:23:24;;;;;;;7.30;2.60;;;21.00;72.30;;;;;;4997617;28;20038;-64
2022/10/29 11:25:57;;;;;;;11.63;3.05;;;21.10;72.30;;;;;;4998673;28;20037;-64
2022/10/29 11:28:37;;;;;;;5.45;2.20;;;21.10;72.80;;;;;;4996977;28;20088;-63
2022/10/29 11:31:18;;;;;;;8.68;2.38;;;21.20;72.70;;;;;;4994701;28;20340;-64
2022/10/29 11:34:30;;;;;;;7.00;2.65;;;21.30;72.50;;;;;;4998941;28;20042;-62
2022/10/29 11:37:13;;;;;;;10.30;2.63;;;21.30;70.40;;;;;;4968243;28;20512;-64
2022/10/29 11:39:50;;;;;;;8.05;2.40;;;21.40;71.10;;;;;;5001531;28;20046;-64
2022/10/29 11:42:15;;;;;;;11.23;2.75;;;21.50;70.70;;;;;;4999488;28;20050;-64
2022/10/29 11:44:41;;;;;;;7.43;2.72;;;21.50;71.20;;;;;;5002219;28;20038;-64
2022/10/29 11:47:17;;;;;;;8.55;2.70;;;21.60;71.30;;;;;;4999363;28;20053;-64
2022/10/29 11:50:08;;;;;;;7.45;2.65;;;21.70;70.10;;;;;;5004405;28;20116;-63
2022/10/29 11:53:10;;;;;;;8.32;2.72;;;21.80;70.60;;;;;;5003546;28;20030;-63
2022/10/29 11:55:47;;;;;;;13.25;2.70;;;21.90;70.70;;;;;;4937885;28;20073;-63
2022/10/29 11:58:24;;;;;;;8.85;2.50;;;21.90;68.80;;;;;;4993277;28;20383;-65
2022/10/29 12:01:04;;;;;;;5.90;2.40;;;21.90;67.80;;;;;;5000699;28;20034;-63
2022/10/29 12:03:40;;;;;;;9.13;2.50;;;22.00;67.80;;;;;;5001493;28;20563;-64
2022/10/29 12:06:18;;;;;;;13.55;3.22;;;22.10;67.10;;;;;;5001700;28;20040;-64
2022/10/29 12:09:25;;;;;;;6.35;2.80;;;22.20;68.10;;;;;;5003164;28;20045;-62
2022/10/29 12:12:02;;;;;;;10.25;3.75;;;22.30;69.00;;;;;;5001116;28;20124;-64
2022/10/29 12:14:50;;;;;;;8.75;3.50;;;22.40;70.00;;;;;;5000722;28;20540;-64
2022/10/29 12:17:53;;;;;;;9.73;3.38;;;22.40;69.30;;;;;;5004383;28;20085;-64
2022/10/29 12:20:55;;;;;;;7.82;3.15;;;22.50;68.10;;;;;;5001951;28;20096;-64
2022/10/29 12:23:30;;;;;;;11.43;2.67;;;22.60;68.00;;;;;;5004313;28;20493;-64
2022/10/29 12:26:05;;;;;;;10.98;2.92;;;22.70;69.30;;;;;;5001592;28;20497;-64
2022/10/29 12:29:13;;;;;;;10.13;3.15;;;22.70;69.00;;;;;;4999392;28;20038;-64
2022/10/29 12:32:10;;;;;;;6.85;2.55;;;22.80;68.20;;;;;;4954502;28;20047;-62
2022/10/29 12:34:39;;;;;;;9.25;3.05;;;22.80;67.80;;;;;;4973469;28;20092;-63
2022/10/29 12:37:32;;;;;;;7.40;2.63;;;22.80;68.40;;;;;;5001628;28;20464;-64
2022/10/29 12:40:19;;;;;;;12.90;3.10;;;22.90;66.60;;;;;;5001557;28;20076;-64
2022/10/29 12:42:47;;;;;;;6.32;2.63;;;23.00;67.20;;;;;;5013965;28;20420;-64
2022/10/29 12:45:45;;;;;;;9.15;2.70;;;23.00;67.60;;;;;;5004202;28;20509;-64
2022/10/29 12:48:38;;;;;;;7.65;2.90;;;23.00;67.40;;;;;;4981930;28;20044;-64
2022/10/29 12:51:26;;;;;;;9.27;3.13;;;23.00;65.80;;;;;;5004581;28;20548;-63
2022/10/29 12:54:10;;;;;;;6.60;2.65;;;23.10;65.70;;;;;;5006275;28;20042;-63
2022/10/29 12:56:36;;;;;;;9.68;2.67;;;23.10;66.90;;;;;;5001898;28;20033;-64
2022/10/29 12:59:23;;;;;;;10.27;2.95;;;23.20;66.60;;;;;;5000855;28;20034;-64
2022/10/29 13:01:50;;;;;;;11.55;2.40;;;23.20;64.80;;;;;;4991736;28;20042;-62
2022/10/29 13:04:32;;;;;;;8.15;2.67;;;23.20;65.80;;;;;;4996149;28;20060;-64
2022/10/29 13:07:21;;;;;;;9.90;2.90;;;23.20;64.50;;;;;;4993459;28;20398;-63